createdAt,value
2022-09-17T00:01:24.937Z,11.34
2022-09-17T00:03:56.254Z,11.34
2022-09-17T00:06:25.168Z,11.33
2022-09-17T00:08:54.198Z,11.33
2022-09-17T00:11:24.762Z,11.37
2022-09-17T00:13:54.084Z,11.32
2022-09-17T00:16:27.927Z,11.18
2022-09-17T00:18:58.041Z,11.12
2022-09-17T00:21:26.587Z,11.11
2022-09-17T00:23:56.311Z,11.08
2022-09-17T00:26:24.729Z,11.02
2022-09-17T00:28:53.687Z,11.02
2022-09-17T00:31:22.136Z,10.96
2022-09-17T00:33:50.624Z,10.99
2022-09-17T00:36:20.684Z,10.96
2022-09-17T00:38:50.771Z,10.85
2022-09-17T00:41:19.048Z,10.82
2022-09-17T00:43:49.451Z,10.81
2022-09-17T00:46:25.192Z,10.75
2022-09-17T00:48:54.219Z,10.80
2022-09-17T00:51:28.025Z,10.75
2022-09-17T00:53:56.845Z,10.74
2022-09-17T00:56:26.930Z,10.72
2022-09-17T00:58:55.919Z,10.77
2022-09-17T01:01:24.150Z,10.80
2022-09-17T01:03:52.211Z,10.63
2022-09-17T01:06:26.712Z,10.71
2022-09-17T01:09:05.959Z,10.68
2022-09-17T01:11:55.995Z,10.80
2022-09-17T01:14:36.419Z,10.84
2022-09-17T01:17:19.466Z,10.80
2022-09-17T01:20:13.923Z,10.76
2022-09-17T01:22:55.868Z,10.73
2022-09-17T01:25:25.072Z,10.69
2022-09-17T01:28:15.704Z,10.69
2022-09-17T01:31:02.118Z,10.63
2022-09-17T01:38:05.503Z,10.54
2022-09-17T01:40:41.447Z,10.49
2022-09-17T01:43:12.253Z,10.43
2022-09-17T01:45:43.253Z,10.34
2022-09-17T01:48:17.560Z,10.38
2022-09-17T01:50:50.870Z,10.38
2022-09-17T01:53:20.177Z,10.39
2022-09-17T01:55:50.247Z,10.43
2022-09-17T01:58:20.508Z,10.35
2022-09-17T02:00:52.565Z,10.33
2022-09-17T02:03:24.372Z,10.36
2022-09-17T02:05:56.608Z,10.43
2022-09-17T02:08:27.370Z,10.45
2022-09-17T02:10:59.648Z,10.48
2022-09-17T02:13:31.088Z,10.46
2022-09-17T02:16:09.750Z,10.45
2022-09-17T02:18:41.716Z,10.39
2022-09-17T02:21:14.720Z,10.36
2022-09-17T02:23:48.361Z,10.22
2022-09-17T02:26:18.824Z,10.19
2022-09-17T02:28:50.972Z,10.18
2022-09-17T02:31:19.226Z,9.99
2022-09-17T02:33:50.748Z,10.01
2022-09-17T02:36:19.385Z,10.05
2022-09-17T02:38:47.872Z,9.98
2022-09-17T02:41:17.952Z,9.65
2022-09-17T02:43:52.683Z,9.81
2022-09-17T02:46:38.195Z,9.92
2022-09-17T02:49:23.766Z,9.99
2022-09-17T02:51:59.360Z,10.08
2022-09-17T02:54:30.045Z,10.09
2022-09-17T02:57:06.382Z,10.06
2022-09-17T02:59:41.896Z,10.10
2022-09-17T03:02:14.545Z,10.15
2022-09-17T03:04:46.855Z,10.07
2022-09-17T03:07:15.246Z,9.93
2022-09-17T03:09:43.612Z,9.73
2022-09-17T03:12:12.395Z,9.73
2022-09-17T03:14:40.429Z,9.81
2022-09-17T03:17:08.618Z,9.80
2022-09-17T03:19:36.673Z,9.80
2022-09-17T03:22:06.102Z,9.86
2022-09-17T03:24:34.080Z,9.86
2022-09-17T03:27:02.198Z,9.79
2022-09-17T03:29:30.195Z,9.60
2022-09-17T03:31:58.210Z,9.70
2022-09-17T03:34:26.126Z,9.69
2022-09-17T03:36:54.191Z,9.73
2022-09-17T03:39:23.521Z,9.70
2022-09-17T03:41:51.507Z,9.69
2022-09-17T03:44:19.599Z,9.68
2022-09-17T03:46:47.672Z,9.70
2022-09-17T03:49:15.694Z,9.61
2022-09-17T03:51:44.152Z,9.62
2022-09-17T03:54:12.245Z,9.66
2022-09-17T03:56:41.544Z,9.61
2022-09-17T03:59:09.717Z,9.51
2022-09-17T04:01:37.812Z,9.59
2022-09-17T04:04:07.878Z,9.60
2022-09-17T04:06:35.990Z,9.61
2022-09-17T04:09:05.514Z,9.62
2022-09-17T04:11:33.492Z,9.55
2022-09-17T04:14:02.975Z,9.51
2022-09-17T04:16:31.050Z,9.51
2022-09-17T04:18:59.158Z,9.50
2022-09-17T04:21:27.238Z,9.49
2022-09-17T04:23:55.452Z,9.47
2022-09-17T04:26:23.549Z,9.46
2022-09-17T04:28:51.519Z,9.44
2022-09-17T04:31:22.691Z,9.46
2022-09-17T04:33:50.726Z,9.48
2022-09-17T04:36:19.028Z,9.47
2022-09-17T04:38:49.355Z,9.50
2022-09-17T04:41:17.389Z,9.52
2022-09-17T04:43:45.419Z,9.42
2022-09-17T04:46:14.196Z,9.42
2022-09-17T04:48:43.647Z,9.35
2022-09-17T04:51:11.626Z,9.28
2022-09-17T04:53:39.610Z,9.30
2022-09-17T04:56:07.565Z,9.26
2022-09-17T04:58:35.540Z,9.29
2022-09-17T05:01:03.603Z,9.42
2022-09-17T05:03:31.685Z,9.48
2022-09-17T05:06:01.068Z,9.54
2022-09-17T05:08:29.053Z,9.55
2022-09-17T05:10:57.590Z,9.55
2022-09-17T05:13:25.588Z,9.53
2022-09-17T05:15:56.073Z,9.62
2022-09-17T05:18:24.306Z,9.62
2022-09-17T05:20:52.353Z,9.62
2022-09-17T05:23:21.827Z,9.61
2022-09-17T05:25:49.838Z,9.57
2022-09-17T05:28:17.872Z,9.61
2022-09-17T05:30:45.920Z,9.61
2022-09-17T05:33:13.890Z,9.59
2022-09-17T05:35:44.134Z,9.53
2022-09-17T05:38:12.364Z,9.56
2022-09-17T05:40:41.809Z,9.56
2022-09-17T05:43:11.159Z,9.51
2022-09-17T05:45:39.902Z,9.56
2022-09-17T05:48:10.390Z,9.57
2022-09-17T05:50:38.408Z,9.52
2022-09-17T05:53:07.505Z,9.42
2022-09-17T05:55:36.168Z,9.49
2022-09-17T05:58:12.363Z,9.32
2022-09-17T06:00:41.126Z,9.26
2022-09-17T06:03:09.646Z,9.17
2022-09-17T06:05:37.711Z,9.24
2022-09-17T06:08:05.745Z,9.27
2022-09-17T06:10:33.924Z,9.20
2022-09-17T06:13:01.941Z,9.25
2022-09-17T06:15:31.426Z,9.32
2022-09-17T06:17:59.548Z,9.39
2022-09-17T06:20:27.604Z,9.25
2022-09-17T06:22:58.098Z,9.30
2022-09-17T06:25:26.675Z,9.39
2022-09-17T06:27:54.639Z,9.39
2022-09-17T06:30:22.585Z,9.45
2022-09-17T06:32:51.928Z,9.36
2022-09-17T06:35:20.414Z,9.35
2022-09-17T06:37:48.989Z,9.43
2022-09-17T06:40:17.686Z,9.56
2022-09-17T06:42:45.715Z,9.53
2022-09-17T06:45:16.735Z,9.45
2022-09-17T06:47:46.441Z,9.45
2022-09-17T06:50:16.007Z,9.38
2022-09-17T06:52:49.473Z,9.41
2022-09-17T06:55:17.729Z,9.40
2022-09-17T06:57:45.970Z,9.51
2022-09-17T07:00:15.057Z,9.59
2022-09-17T07:02:43.137Z,9.64
2022-09-17T07:05:11.352Z,9.76
2022-09-17T07:07:41.188Z,9.87
2022-09-17T07:10:09.715Z,9.92
2022-09-17T07:12:42.925Z,9.84
2022-09-17T07:15:13.902Z,9.86
2022-09-17T07:17:42.670Z,9.76
2022-09-17T07:20:11.699Z,9.71
2022-09-17T07:22:41.251Z,9.87
2022-09-17T07:25:10.423Z,9.75
2022-09-17T07:27:38.497Z,9.83
2022-09-17T07:30:07.756Z,9.87
2022-09-17T07:32:35.763Z,9.75
2022-09-17T07:35:04.301Z,9.72
2022-09-17T07:37:32.311Z,9.74
2022-09-17T07:40:01.884Z,9.76
2022-09-17T07:42:30.056Z,9.81
2022-09-17T07:45:01.830Z,9.90
2022-09-17T07:47:30.936Z,9.96
2022-09-17T07:49:58.973Z,9.96
2022-09-17T07:52:27.538Z,10.06
2022-09-17T07:54:55.518Z,10.05
2022-09-17T07:57:24.993Z,10.11
2022-09-17T07:59:53.025Z,10.21
2022-09-17T08:02:24.202Z,10.33
2022-09-17T08:04:52.565Z,10.46
2022-09-17T08:07:20.541Z,10.47
2022-09-17T08:09:48.524Z,10.56
2022-09-17T08:12:18.344Z,10.59
2022-09-17T08:14:47.699Z,10.64
2022-09-17T08:17:15.783Z,10.70
2022-09-17T08:19:43.991Z,10.72
2022-09-17T08:22:11.983Z,10.63
2022-09-17T08:24:39.993Z,10.69
2022-09-17T08:27:08.013Z,10.77
2022-09-17T08:29:35.984Z,10.74
2022-09-17T08:32:05.612Z,10.68
2022-09-17T08:34:33.735Z,10.65
2022-09-17T08:37:02.949Z,10.71
2022-09-17T08:39:30.971Z,10.75
2022-09-17T08:42:09.433Z,10.66
2022-09-17T08:44:41.586Z,10.62
2022-09-17T08:47:16.415Z,10.65
2022-09-17T08:49:49.837Z,10.65
2022-09-17T08:52:43.088Z,10.64
2022-09-17T08:55:26.377Z,10.59
2022-09-17T08:58:02.228Z,10.55
2022-09-17T09:00:37.990Z,10.50
2022-09-17T09:03:20.733Z,10.55
2022-09-17T09:05:50.086Z,10.56
2022-09-17T09:08:20.564Z,10.56
2022-09-17T09:10:51.990Z,10.31
2022-09-17T09:13:23.288Z,10.34
2022-09-17T09:15:56.147Z,10.27
2022-09-17T09:18:27.655Z,10.15
2022-09-17T09:20:58.757Z,10.09
2022-09-17T09:23:32.334Z,9.93
2022-09-17T09:26:07.089Z,9.77
2022-09-17T09:29:04.749Z,9.79
2022-09-17T09:32:15.242Z,9.40
2022-09-17T09:34:46.350Z,9.49
2022-09-17T09:37:18.836Z,9.55
2022-09-17T09:39:47.531Z,9.57
2022-09-17T09:42:20.760Z,9.64
2022-09-17T09:44:48.754Z,9.67
2022-09-17T09:47:26.640Z,9.76
2022-09-17T09:50:09.433Z,9.82
2022-09-17T09:52:47.048Z,10.02
2022-09-17T09:55:30.355Z,10.03
2022-09-17T09:58:05.009Z,10.04
2022-09-17T10:00:36.597Z,9.89
2022-09-17T10:03:08.051Z,9.86
2022-09-17T10:05:37.475Z,9.98
2022-09-17T10:08:12.746Z,10.01
2022-09-17T10:10:55.508Z,10.11
2022-09-17T10:13:24.163Z,10.05
2022-09-17T10:15:52.385Z,9.97
2022-09-17T10:18:21.744Z,10.00
2022-09-17T10:20:59.463Z,9.94
2022-09-17T10:23:29.415Z,9.98
2022-09-17T10:25:57.686Z,10.11
2022-09-17T10:28:40.546Z,10.08
2022-09-17T10:31:10.747Z,10.05
2022-09-17T10:33:52.828Z,10.12
2022-09-17T10:36:41.234Z,10.21
2022-09-17T10:39:32.111Z,10.40
2022-09-17T10:42:01.315Z,10.29
2022-09-17T10:44:30.607Z,10.25
2022-09-17T10:47:04.607Z,10.12
2022-09-17T10:49:37.979Z,10.11
2022-09-17T10:52:11.986Z,10.18
2022-09-17T10:55:00.833Z,10.19
2022-09-17T10:57:46.455Z,10.26
2022-09-17T11:00:17.091Z,10.38
2022-09-17T11:03:23.141Z,10.50
2022-09-17T11:06:15.634Z,10.56
2022-09-17T11:08:51.410Z,10.70
2022-09-17T11:11:29.849Z,10.70
2022-09-17T11:14:04.067Z,10.86
2022-09-17T11:16:38.060Z,10.95
2022-09-17T11:19:14.309Z,11.01
2022-09-17T11:21:45.798Z,11.06
2022-09-17T11:24:54.668Z,11.14
2022-09-17T11:27:39.478Z,11.18
2022-09-17T11:30:16.869Z,11.25
2022-09-17T11:33:20.348Z,11.22
2022-09-17T11:35:49.952Z,11.26
2022-09-17T11:38:22.012Z,11.22
2022-09-17T11:40:54.517Z,11.41
2022-09-17T11:43:27.173Z,11.47
2022-09-17T11:46:01.387Z,11.53
2022-09-17T11:48:35.126Z,11.61
2022-09-17T11:51:08.923Z,11.72
2022-09-17T11:53:40.873Z,11.73
2022-09-17T11:56:16.870Z,11.74
2022-09-17T11:58:45.819Z,11.85
2022-09-17T12:01:18.253Z,11.83
2022-09-17T12:03:52.456Z,11.90
2022-09-17T12:06:24.349Z,11.85
2022-09-17T12:08:56.818Z,11.84
2022-09-17T12:11:33.135Z,11.85
2022-09-17T12:14:05.802Z,11.94
2022-09-17T12:16:37.508Z,12.12
2022-09-17T12:19:12.060Z,12.06
2022-09-17T12:21:44.640Z,12.23
2022-09-17T12:24:16.255Z,12.23
2022-09-17T12:27:01.064Z,12.35
2022-09-17T12:30:00.228Z,12.50
2022-09-17T12:32:39.125Z,12.61
2022-09-17T12:35:17.647Z,12.68
2022-09-17T12:37:55.112Z,12.61
2022-09-17T12:40:28.485Z,12.60
2022-09-17T12:43:06.472Z,12.62
2022-09-17T12:45:42.190Z,12.62
2022-09-17T12:48:24.756Z,12.50
2022-09-17T12:51:03.390Z,12.50
2022-09-17T12:53:37.098Z,12.43
2022-09-17T12:56:15.974Z,12.52
2022-09-17T12:59:04.419Z,12.37
2022-09-17T13:01:39.894Z,12.25
2022-09-17T13:04:17.120Z,12.19
2022-09-17T13:07:16.261Z,12.18
2022-09-17T13:09:53.263Z,12.00
2022-09-17T13:12:25.404Z,11.97
2022-09-17T13:15:05.975Z,12.22
2022-09-17T13:17:43.414Z,12.36
2022-09-17T13:20:16.377Z,12.57
2022-09-17T13:22:49.485Z,12.78
2022-09-17T13:25:19.794Z,12.78
2022-09-17T13:27:49.375Z,12.79
2022-09-17T13:30:20.720Z,12.84
2022-09-17T13:32:55.198Z,12.90
2022-09-17T13:35:50.822Z,12.95
2022-09-17T13:38:23.769Z,13.02
2022-09-17T13:40:53.038Z,12.95
2022-09-17T13:43:26.384Z,13.11
2022-09-17T13:46:16.260Z,13.29
2022-09-17T13:48:54.476Z,13.51
2022-09-17T13:51:59.143Z,13.55
2022-09-17T13:54:39.046Z,13.50
2022-09-17T13:57:10.262Z,13.55
2022-09-17T13:59:38.753Z,13.68
2022-09-17T14:02:37.990Z,13.59
2022-09-17T14:05:34.427Z,13.42
2022-09-17T14:08:14.493Z,13.39
2022-09-17T14:10:44.228Z,13.42
2022-09-17T14:13:44.387Z,13.43
2022-09-17T14:16:35.882Z,13.57
2022-09-17T14:19:23.004Z,13.55
2022-09-17T14:22:00.732Z,13.59
2022-09-17T14:24:35.586Z,13.76
2022-09-17T14:27:11.824Z,13.77
2022-09-17T14:29:52.700Z,13.85
2022-09-17T14:32:32.334Z,13.86
2022-09-17T14:35:02.816Z,13.78
2022-09-17T14:37:31.128Z,13.74
2022-09-17T14:40:00.287Z,13.49
2022-09-17T14:42:33.479Z,13.69
2022-09-17T14:45:03.182Z,13.61
2022-09-17T14:47:31.476Z,13.52
2022-09-17T14:50:21.020Z,13.58
2022-09-17T14:52:50.144Z,13.49
2022-09-17T14:55:20.584Z,13.54
2022-09-17T14:57:52.180Z,13.28
2022-09-17T15:00:23.194Z,13.15
2022-09-17T15:02:54.194Z,12.92
2022-09-17T15:05:30.388Z,13.00
2022-09-17T15:08:22.795Z,12.87
2022-09-17T15:10:55.127Z,12.80
2022-09-17T15:13:27.150Z,12.68
2022-09-17T15:16:01.907Z,12.63
2022-09-17T15:18:37.628Z,12.39
2022-09-17T15:21:12.330Z,12.01
2022-09-17T15:23:40.813Z,11.99
2022-09-17T15:26:08.844Z,11.75
2022-09-17T15:28:40.098Z,11.80
2022-09-17T15:31:15.716Z,11.96
2022-09-17T15:33:44.216Z,12.14
2022-09-17T15:36:21.144Z,12.14
2022-09-17T15:38:49.674Z,12.02
2022-09-17T15:41:28.522Z,12.17
2022-09-17T15:44:28.580Z,11.99
2022-09-17T15:46:56.806Z,11.89
2022-09-17T15:49:29.966Z,11.97
2022-09-17T15:52:36.637Z,11.82
2022-09-17T15:55:06.993Z,11.85
2022-09-17T15:57:34.985Z,11.96
2022-09-17T16:00:14.054Z,11.88
2022-09-17T16:02:42.365Z,11.81
2022-09-17T16:05:55.602Z,11.75
2022-09-17T16:08:24.907Z,11.79
2022-09-17T16:10:54.323Z,11.80
2022-09-17T16:13:25.291Z,11.74
2022-09-17T16:15:56.734Z,11.74
2022-09-17T16:18:24.727Z,11.87
2022-09-17T16:20:52.718Z,11.63
2022-09-17T16:23:20.688Z,11.64
2022-09-17T16:25:48.822Z,11.48
2022-09-17T16:28:20.549Z,11.59
2022-09-17T16:30:49.639Z,11.59
2022-09-17T16:33:19.094Z,11.67
2022-09-17T16:35:47.072Z,11.61
2022-09-17T16:38:15.500Z,11.55
2022-09-17T16:40:45.334Z,11.56
2022-09-17T16:43:13.468Z,11.50
2022-09-17T16:45:42.910Z,11.43
2022-09-17T16:48:11.422Z,11.40
2022-09-17T16:50:41.237Z,11.38
2022-09-17T16:53:09.198Z,11.20
2022-09-17T16:55:37.669Z,11.22
2022-09-17T16:58:05.732Z,11.29
2022-09-17T17:00:33.792Z,11.45
2022-09-17T17:03:03.239Z,11.42
2022-09-17T17:05:32.438Z,11.27
2022-09-17T17:08:05.876Z,11.25
2022-09-17T17:10:34.939Z,11.15
2022-09-17T17:13:03.028Z,11.28
2022-09-17T17:15:31.215Z,11.10
2022-09-17T17:17:59.383Z,11.09
2022-09-17T17:20:29.465Z,11.01
2022-09-17T17:22:57.428Z,10.85
2022-09-17T17:25:27.139Z,10.80
2022-09-17T17:27:55.426Z,10.81
2022-09-17T17:30:23.409Z,10.57
2022-09-17T17:32:52.323Z,10.52
2022-09-17T17:35:22.078Z,10.55
2022-09-17T17:37:51.417Z,10.61
2022-09-17T17:40:20.949Z,10.37
2022-09-17T17:42:52.709Z,10.28
2022-09-17T17:45:20.681Z,10.28
2022-09-17T17:47:48.904Z,10.22
2022-09-17T17:50:17.089Z,10.10
2022-09-17T17:52:48.087Z,10.14
2022-09-17T17:55:17.943Z,10.17
2022-09-17T17:57:46.065Z,10.22
2022-09-17T18:00:16.699Z,10.10
2022-09-17T18:02:44.856Z,10.07
2022-09-17T18:05:13.167Z,10.06
2022-09-17T18:07:41.300Z,10.13
2022-09-17T18:10:10.446Z,10.04
2022-09-17T18:12:40.049Z,10.12
2022-09-17T18:15:08.853Z,10.12
2022-09-17T18:17:36.887Z,10.13
2022-09-17T18:20:05.684Z,10.04
2022-09-17T18:22:33.658Z,10.00
2022-09-17T18:25:01.661Z,10.05
2022-09-17T18:27:29.676Z,9.98
2022-09-17T18:29:59.093Z,10.01
2022-09-17T18:32:27.059Z,9.96
2022-09-17T18:34:54.994Z,9.99
2022-09-17T18:37:22.991Z,9.94
2022-09-17T18:39:58.389Z,10.01
2022-09-17T18:42:27.308Z,9.89
2022-09-17T18:44:55.413Z,9.84
2022-09-17T18:47:24.843Z,9.95
2022-09-17T18:49:53.153Z,9.84
2022-09-17T18:52:21.266Z,9.88
2022-09-17T18:54:49.219Z,9.88
2022-09-17T18:57:17.263Z,9.84
2022-09-17T18:59:47.097Z,9.84
2022-09-17T19:02:15.136Z,9.78
2022-09-17T19:04:44.499Z,9.88
2022-09-17T19:07:12.434Z,9.89
2022-09-17T19:09:40.326Z,9.80
2022-09-17T19:12:08.306Z,9.90
2022-09-17T19:14:36.232Z,9.89
2022-09-17T19:17:04.229Z,9.80
2022-09-17T19:19:32.211Z,9.89
2022-09-17T19:22:01.464Z,9.87
2022-09-17T19:24:29.418Z,9.83
2022-09-17T19:26:58.813Z,9.74
2022-09-17T19:29:27.358Z,9.75
2022-09-17T19:31:55.367Z,9.80
2022-09-17T19:34:23.296Z,9.77
2022-09-17T19:36:51.272Z,9.74
2022-09-17T19:39:20.593Z,9.72
2022-09-17T19:41:48.555Z,9.78
2022-09-17T19:44:16.519Z,9.77
2022-09-17T19:46:45.119Z,9.72
2022-09-17T19:49:13.864Z,9.79
2022-09-17T19:51:41.839Z,9.75
2022-09-17T19:54:10.316Z,9.66
2022-09-17T19:56:39.873Z,9.68
2022-09-17T19:59:07.924Z,9.65
2022-09-17T20:01:35.911Z,9.66
2022-09-17T20:04:04.253Z,9.63
2022-09-17T20:06:34.534Z,9.53
2022-09-17T20:09:02.651Z,9.55
2022-09-17T20:11:30.643Z,9.49
2022-09-17T20:14:03.050Z,9.55
2022-09-17T20:16:31.550Z,9.64
2022-09-17T20:18:59.663Z,9.63
2022-09-17T20:21:29.475Z,9.60
2022-09-17T20:23:58.380Z,9.51
2022-09-17T20:26:26.628Z,9.43
2022-09-17T20:28:54.862Z,9.43
2022-09-17T20:31:25.370Z,9.57
2022-09-17T20:33:54.252Z,9.51
2022-09-17T20:36:23.810Z,9.56
2022-09-17T20:39:14.324Z,9.57
2022-09-17T20:41:40.592Z,9.52
2022-09-17T20:44:08.874Z,9.41
2022-09-17T20:46:38.222Z,9.40
2022-09-17T20:49:06.206Z,9.29
2022-09-17T20:51:34.301Z,9.21
2022-09-17T20:54:02.884Z,9.20
2022-09-17T20:56:33.248Z,9.17
2022-09-17T20:59:08.720Z,9.20
2022-09-17T21:01:38.436Z,9.21
2022-09-17T21:04:08.214Z,9.07
2022-09-17T21:06:37.962Z,9.14
2022-09-17T21:09:06.924Z,9.10
2022-09-17T21:11:35.609Z,9.09
2022-09-17T21:14:03.894Z,9.01
2022-09-17T21:16:32.178Z,9.04
2022-09-17T21:19:02.881Z,9.16
2022-09-17T21:21:34.295Z,9.15
2022-09-17T21:24:02.615Z,9.24
2022-09-17T21:26:31.214Z,9.18
2022-09-17T21:28:59.189Z,9.11
2022-09-17T21:31:32.330Z,9.13
2022-09-17T21:34:03.732Z,9.12
2022-09-17T21:36:33.955Z,9.06
2022-09-17T21:39:02.995Z,9.02
2022-09-17T21:41:31.207Z,8.95
2022-09-17T21:43:59.249Z,8.90
2022-09-17T21:46:28.534Z,8.91
2022-09-17T21:48:57.927Z,8.93
2022-09-17T21:51:30.416Z,8.95
2022-09-17T21:54:00.455Z,8.90
2022-09-17T21:56:29.788Z,8.89
2022-09-17T21:58:58.743Z,8.83
2022-09-17T22:01:28.053Z,8.73
2022-09-17T22:03:57.097Z,8.73
2022-09-17T22:06:50.908Z,8.71
2022-09-17T22:09:20.502Z,8.61
2022-09-17T22:11:48.465Z,8.71
2022-09-17T22:14:19.448Z,8.81
2022-09-17T22:16:48.865Z,8.71
2022-09-17T22:19:18.577Z,8.78
2022-09-17T22:21:48.329Z,8.74
2022-09-17T22:24:18.194Z,8.72
2022-09-17T22:26:47.570Z,8.64
2022-09-17T22:29:17.304Z,8.58
2022-09-17T22:31:46.222Z,8.44
2022-09-17T22:34:15.597Z,8.61
2022-09-17T22:36:43.914Z,8.57
2022-09-17T22:39:12.219Z,8.59
2022-09-17T22:41:45.634Z,8.52
2022-09-17T22:44:15.710Z,8.52
2022-09-17T22:46:46.215Z,8.41
2022-09-17T22:49:14.770Z,8.38
2022-09-17T22:51:43.377Z,8.50
2022-09-17T22:54:12.597Z,8.38
2022-09-17T22:56:42.255Z,8.38
2022-09-17T22:59:10.329Z,8.30
2022-09-17T23:01:40.079Z,8.28
2022-09-17T23:04:08.209Z,8.33
2022-09-17T23:06:38.501Z,8.23
2022-09-17T23:09:07.344Z,8.32
2022-09-17T23:11:36.451Z,8.33
2022-09-17T23:14:08.714Z,8.38
2022-09-17T23:16:38.636Z,8.38
2022-09-17T23:19:07.295Z,8.38
2022-09-17T23:21:35.707Z,8.34
2022-09-17T23:24:28.964Z,8.34
2022-09-17T23:26:57.527Z,8.32
2022-09-17T23:29:26.999Z,8.32
2022-09-17T23:31:54.950Z,8.28
2022-09-17T23:34:23.066Z,8.39
2022-09-17T23:36:51.074Z,8.39
2022-09-17T23:39:19.325Z,8.31
2022-09-17T23:41:48.061Z,8.38
2022-09-17T23:44:16.541Z,8.26
2022-09-17T23:46:46.926Z,8.26
2022-09-17T23:49:15.719Z,8.30
2022-09-17T23:51:44.009Z,8.29
2022-09-17T23:54:12.164Z,8.28
2022-09-17T23:56:40.373Z,8.31
2022-09-17T23:59:08.540Z,8.30
